Time;durP1;ratioP1;P1;durP2;ratioP2;P2;SDS_P1;SDS_P2;PMS_P1;PMS_P2;Temp;Humidity;BMP_temperature;BMP_pressure;BME280_temperature;BME280_humidity;BME280_pressure;Samples;Min_cycle;Max_cycle;Signal;HPM_P1;HPM_P2
2022/06/04 00:02:06;;;;;;;;;;;;;;;17.35;91.42;96316.38;5029225;28;20933;-78
2022/06/04 00:04:32;;;;;;;;;;;;;;;17.36;91.19;96317.97;5030959;28;20434;-78
2022/06/04 00:06:59;;;;;;;;;;;;;;;17.38;90.75;96318.44;5030758;28;20403;-78
2022/06/04 00:09:25;;;;;;;;;;;;;;;17.35;90.51;96315.59;5030128;28;19921;-77
2022/06/04 00:17:22;;;;;;;;;;;;;;;17.30;89.92;96324.94;5030414;28;20059;-78
2022/06/04 00:19:48;;;;;;;;;;;;;;;17.27;90.07;96333.09;5030975;28;19921;-77
2022/06/04 00:22:15;;;;;;;;;;;;;;;17.25;90.41;96338.97;5030425;28;19921;-77
2022/06/04 00:24:42;;;;;;;;;;;;;;;17.24;90.56;96329.13;5030386;28;19928;-78
2022/06/04 00:27:13;;;;;;;;;;;;;;;17.24;90.69;96326.38;5031614;28;19929;-78
2022/06/04 00:29:41;;;;;;;;;;;;;;;17.24;90.31;96320.09;5035190;28;19927;-79
2022/06/04 00:32:08;;;;;;;;;;;;;;;17.21;90.24;96321.59;5033962;28;19925;-78
2022/06/04 00:34:34;;;;;;;;;;;;;;;17.21;90.35;96316.09;5035040;28;19921;-77
2022/06/04 00:37:00;;;;;;;;;;;;;;;17.20;90.40;96320.00;5034588;28;19921;-78
2022/06/04 00:39:27;;;;;;;;;;;;;;;17.19;90.44;96318.41;5034198;28;20406;-78
2022/06/04 00:41:55;;;;;;;;;;;;;;;17.18;90.43;96316.81;5034600;28;19921;-79
2022/06/04 00:44:36;;;;;;;;;;;;;;;17.16;89.95;96313.63;5034311;28;19928;-78
2022/06/04 00:47:11;;;;;;;;;;;;;;;17.13;90.07;96317.91;5033401;28;19921;-78
2022/06/04 00:49:37;;;;;;;;;;;;;;;17.10;90.12;96312.31;5039688;28;19921;-78
2022/06/04 00:52:04;;;;;;;;;;;;;;;17.10;90.15;96312.31;5036405;28;19928;-78
2022/06/04 00:54:31;;;;;;;;;;;;;;;17.09;90.17;96310.72;5034447;28;19921;-78
2022/06/04 00:57:03;;;;;;;;;;;;;;;17.09;89.77;96319.00;5034574;28;20322;-78
2022/06/04 00:59:36;;;;;;;;;;;;;;;17.06;89.70;96306.75;5034290;28;19921;-77
2022/06/04 01:02:20;;;;;;;;;;;;;;;17.05;89.99;96309.84;5033996;28;19928;-77
2022/06/04 01:04:55;;;;;;;;;;;;;;;17.02;90.10;96311.38;5034447;28;20368;-78
2022/06/04 01:07:27;;;;;;;;;;;;;;;16.98;90.38;96306.97;5033873;28;20010;-78
2022/06/04 01:10:01;;;;;;;;;;;;;;;16.95;90.37;96309.25;5033969;28;19921;-78
2022/06/04 01:12:37;;;;;;;;;;;;;;;16.90;90.44;96312.28;5027497;28;19927;-78
2022/06/04 01:15:09;;;;;;;;;;;;;;;16.92;90.67;96315.50;5044848;28;19921;-78
2022/06/04 01:17:42;;;;;;;;;;;;;;;16.90;89.80;96323.28;5034333;28;19921;-77
2022/06/04 01:20:17;;;;;;;;;;;;;;;16.89;89.36;96327.22;5033835;28;20008;-78
2022/06/04 01:23:02;;;;;;;;;;;;;;;16.86;88.89;96327.13;5034349;28;20402;-78
2022/06/04 01:25:38;;;;;;;;;;;;;;;16.79;88.74;96322.25;5024946;28;19927;-79
2022/06/04 01:28:07;;;;;;;;;;;;;;;16.77;89.04;96329.28;5033837;28;19928;-78
2022/06/04 01:30:37;;;;;;;;;;;;;;;16.75;89.14;96332.38;5028255;28;20410;-79
2022/06/04 01:33:07;;;;;;;;;;;;;;;16.72;89.31;96324.06;5044437;28;19921;-77
2022/06/04 01:35:35;;;;;;;;;;;;;;;16.68;89.18;96321.19;5036416;28;19925;-77
2022/06/04 01:38:04;;;;;;;;;;;;;;;16.68;89.32;96326.69;5035918;28;19932;-78
2022/06/04 01:43:22;;;;;;;;;;;;;;;16.66;89.00;96320.78;5036591;28;19959;-78
2022/06/04 01:45:50;;;;;;;;;;;;;;;16.64;89.00;96320.31;5034637;28;19921;-77
2022/06/04 01:48:18;;;;;;;;;;;;;;;16.64;89.06;96320.31;5033391;28;19992;-78
2022/06/04 01:50:48;;;;;;;;;;;;;;;16.63;88.79;96330.53;5033749;28;19921;-78
2022/06/04 01:53:15;;;;;;;;;;;;;;;16.60;88.47;96314.75;5033310;28;19921;-78
2022/06/04 01:55:43;;;;;;;;;;;;;;;16.59;88.38;96313.13;5033641;28;19924;-78
2022/06/04 01:58:12;;;;;;;;;;;;;;;16.57;88.39;96314.66;5033119;28;19921;-77
2022/06/04 02:00:44;;;;;;;;;;;;;;;16.56;88.28;96324.06;5033605;28;19921;-78
2022/06/04 02:03:12;;;;;;;;;;;;;;;16.54;88.46;96315.38;5033318;28;20000;-78
2022/06/04 02:05:40;;;;;;;;;;;;;;;16.52;88.48;96314.94;5033354;28;19921;-78
2022/06/04 02:08:12;;;;;;;;;;;;;;;16.50;88.38;96317.25;5030104;28;19932;-78
2022/06/04 02:10:41;;;;;;;;;;;;;;;16.48;88.33;96316.81;5014278;28;20376;-78
2022/06/04 02:13:10;;;;;;;;;;;;;;;16.44;88.01;96311.22;5013555;28;19925;-78
2022/06/04 02:15:38;;;;;;;;;;;;;;;16.42;87.90;96311.56;5025448;28;20000;-79
2022/06/04 02:18:09;;;;;;;;;;;;;;;16.41;87.82;96311.94;5024450;28;19932;-79
2022/06/04 02:20:35;;;;;;;;;;;;;;;16.41;88.09;96306.44;5023039;28;20360;-79
2022/06/04 02:23:02;;;;;;;;;;;;;;;16.42;88.03;96308.03;5019306;28;19968;-78
2022/06/04 02:25:29;;;;;;;;;;;;;;;16.41;87.89;96304.50;5014228;28;19921;-77
2022/06/04 02:27:56;;;;;;;;;;;;;;;16.40;87.76;96305.66;5013797;28;19928;-78
2022/06/04 02:30:22;;;;;;;;;;;;;;;16.38;87.89;96304.41;5012977;28;19998;-77
2022/06/04 02:32:54;;;;;;;;;;;;;;;16.38;87.71;96307.94;5013076;28;19921;-79
2022/06/04 02:35:24;;;;;;;;;;;;;;;16.33;87.54;96308.22;5012811;28;19921;-78
2022/06/04 02:37:54;;;;;;;;;;;;;;;16.32;87.59;96325.84;5012854;28;20308;-77
2022/06/04 02:40:22;;;;;;;;;;;;;;;16.29;87.55;96318.34;5032338;28;19928;-77
2022/06/04 02:42:53;;;;;;;;;;;;;;;16.26;87.68;96316.28;5032535;28;19921;-78
2022/06/04 02:45:24;;;;;;;;;;;;;;;16.25;87.88;96314.69;5032375;28;20352;-78
2022/06/04 02:47:53;;;;;;;;;;;;;;;16.25;88.47;96322.16;5037373;28;19925;-78
2022/06/04 02:50:23;;;;;;;;;;;;;;;16.24;88.69;96317.81;5047563;28;20217;-78
2022/06/04 02:52:52;;;;;;;;;;;;;;;16.25;89.25;96314.69;5054353;28;19921;-78
2022/06/04 02:55:22;;;;;;;;;;;;;;;16.25;89.17;96314.69;5039926;28;19921;-78
2022/06/04 02:57:51;;;;;;;;;;;;;;;16.24;89.11;96313.13;5032589;28;19921;-78
2022/06/04 03:00:19;;;;;;;;;;;;;;;16.23;89.32;96317.00;5031808;28;19925;-78
2022/06/04 03:02:46;;;;;;;;;;;;;;;16.22;89.37;96326.38;5032164;28;20320;-77
2022/06/04 03:05:15;;;;;;;;;;;;;;;16.22;89.49;96331.88;5031903;28;20460;-78
2022/06/04 03:07:43;;;;;;;;;;;;;;;16.23;89.89;96327.97;5032317;28;20299;-78
2022/06/04 03:10:12;;;;;;;;;;;;;;;16.23;89.62;96341.72;5031841;28;19928;-78
2022/06/04 03:12:39;;;;;;;;;;;;;;;16.19;89.50;96335.34;5032163;28;19928;-78
2022/06/04 03:15:06;;;;;;;;;;;;;;;16.10;88.97;96331.97;5031513;28;19921;-77
2022/06/04 03:17:32;;;;;;;;;;;;;;;16.09;89.06;96333.13;5032143;28;19920;-77
2022/06/04 03:19:58;;;;;;;;;;;;;;;16.10;89.15;96327.28;5032037;28;19928;-78
2022/06/04 03:22:25;;;;;;;;;;;;;;;16.06;89.04;96322.84;5031475;28;19937;-77
2022/06/04 03:24:53;;;;;;;;;;;;;;;16.05;89.20;96333.03;5031632;28;19927;-77
2022/06/04 03:27:21;;;;;;;;;;;;;;;16.05;88.99;96332.25;5030916;28;19921;-78
2022/06/04 03:29:47;;;;;;;;;;;;;;;16.06;88.99;96339.31;5031525;28;20352;-78
2022/06/04 03:32:14;;;;;;;;;;;;;;;16.09;88.89;96330.41;5031270;28;20383;-78
2022/06/04 03:34:40;;;;;;;;;;;;;;;16.07;88.84;96332.69;5031634;28;19921;-79
2022/06/04 03:37:06;;;;;;;;;;;;;;;16.07;88.89;96329.94;5031067;28;19927;-79
2022/06/04 03:39:33;;;;;;;;;;;;;;;16.03;89.13;96326.31;5031803;28;19921;-78
2022/06/04 03:42:01;;;;;;;;;;;;;;;16.03;89.17;96329.88;5031777;28;19921;-78
2022/06/04 03:44:29;;;;;;;;;;;;;;;16.04;89.13;96336.94;5031448;28;20330;-78
2022/06/04 03:46:55;;;;;;;;;;;;;;;16.08;89.17;96337.03;5035375;28;19921;-78
2022/06/04 03:49:22;;;;;;;;;;;;;;;16.11;89.17;96333.56;5031160;28;21016;-78
2022/06/04 03:51:48;;;;;;;;;;;;;;;16.14;88.66;96335.63;5030713;28;19932;-79
2022/06/04 03:54:15;;;;;;;;;;;;;;;16.14;88.52;96333.66;5030356;28;19963;-78
2022/06/04 03:56:41;;;;;;;;;;;;;;;16.14;88.62;96338.38;5031060;28;19921;-78
2022/06/04 03:59:08;;;;;;;;;;;;;;;16.13;88.84;96334.00;5030504;28;19921;-78
2022/06/04 04:01:36;;;;;;;;;;;;;;;16.16;89.07;96338.81;5030461;28;19928;-78
2022/06/04 04:04:02;;;;;;;;;;;;;;;16.18;89.08;96331.00;5030372;28;19921;-78
2022/06/04 04:06:30;;;;;;;;;;;;;;;16.18;89.01;96325.50;5030928;28;19925;-78
2022/06/04 04:08:57;;;;;;;;;;;;;;;16.21;88.92;96335.78;5031238;28;19921;-78
2022/06/04 04:11:25;;;;;;;12.75;11.95;;;;;;;16.24;88.80;96348.03;5029870;28;20480;-79
2022/06/04 04:13:54;;;;;;;117.80;36.90;;;;;;;16.27;88.66;96339.84;5029368;28;20519;-78
2022/06/04 04:16:22;;;;;;;;;;;;;;;16.32;88.36;96347.03;5030089;28;20418;-79
2022/06/04 04:18:50;;;;;;;11.83;10.80;;;;;;;16.33;88.18;96340.38;5030187;28;20472;-79
2022/06/04 04:21:19;;;;;;;152.13;46.05;;;;;;;16.33;87.83;96337.63;5030056;28;20056;-78
2022/06/04 04:23:46;;;;;;;154.80;45.50;;;;;;;16.26;88.19;96335.53;5030343;28;20046;-79
2022/06/04 04:26:13;;;;;;;;;;;;;;;16.25;88.27;96328.44;5030370;28;20407;-79
2022/06/04 04:28:40;;;;;;;148.48;43.65;;;;;;;16.25;88.29;96342.19;5030849;28;19957;-77
2022/06/04 04:31:11;;;;;;;;;;;;;;;16.19;88.16;96329.88;5030476;28;20538;-78
2022/06/04 04:33:38;;;;;;;170.20;45.13;;;;;;;16.20;88.61;96334.19;5030155;28;20994;-78
2022/06/04 04:36:06;;;;;;;;;;;;;;;16.21;88.65;96335.78;5030431;28;20084;-78
2022/06/04 04:38:33;;;;;;;;;;;;;;;16.23;89.06;96338.19;5030633;28;19927;-78
2022/06/04 04:40:59;;;;;;;;;;;;;;;16.25;89.21;96347.69;5030843;28;19932;-78
2022/06/04 04:43:25;;;;;;;;;;;;;;;16.27;89.60;96345.34;5030591;28;19920;-78
2022/06/04 04:46:00;;;;;;;;;;;;;;;16.34;89.90;96345.56;5030979;28;19930;-78
2022/06/04 04:48:26;;;;;;;;;;;;;;;16.37;90.11;96344.03;5030124;28;19921;-79
2022/06/04 04:50:53;;;;;;;;;;;;;;;16.42;90.12;96341.81;5031053;28;19997;-78
2022/06/04 04:53:20;;;;;;;169.18;44.10;;;;;;;16.40;90.63;96335.88;5029321;28;20479;-78
2022/06/04 04:55:48;;;;;;;;;;;;;;;16.28;91.42;96326.91;5030467;28;20049;-78
2022/06/04 04:58:14;;;;;;;125.10;43.90;;;;;;;16.31;91.73;96335.25;5029725;28;20902;-78
2022/06/04 05:00:40;;;;;;;;;;;;;;;16.35;92.05;96330.66;5030488;28;20080;-78
2022/06/04 05:03:07;;;;;;;136.50;43.80;;;;;;;16.27;92.79;96330.81;5029374;28;20418;-78
2022/06/04 05:05:33;;;;;;;;;;;;;;;16.35;92.73;96335.34;5030677;28;20493;-78
2022/06/04 05:08:00;;;;;;;141.90;42.08;;;;;;;16.43;92.55;96342.59;5030341;28;21074;-78
2022/06/04 05:10:28;;;;;;;;;;;;;;;16.49;92.71;96340.38;5030303;28;20404;-79
2022/06/04 05:12:55;;;;;;;;;;;;;;;16.54;93.11;96331.84;5030597;28;19928;-78
2022/06/04 05:15:22;;;;;;;;;;;;;;;16.63;92.74;96335.22;5039865;28;19943;-78
2022/06/04 05:17:49;;;;;;;;;;;;;;;16.65;92.87;96332.91;5034581;28;19927;-78
2022/06/04 05:20:15;;;;;;;;;;;;;;;16.74;92.90;96336.28;5034009;28;20360;-79
2022/06/04 05:22:42;;;;;;;;;;;;;;;16.82;92.85;96338.06;5034561;28;19921;-78
2022/06/04 05:25:09;;;;;;;;;;;;;;;16.83;93.28;96334.16;5033709;28;19921;-79
2022/06/04 05:27:37;;;;;;;;;;;;;;;16.89;93.24;96338.22;5034335;28;19928;-78
2022/06/04 05:30:04;;;;;;;;;;;;;;;16.94;93.14;96346.19;5033530;28;19921;-79
2022/06/04 05:32:30;;;;;;;;;;;;;;;16.97;93.17;96349.38;5033937;28;20598;-78
2022/06/04 05:34:56;;;;;;;145.32;42.45;;;;;;;17.08;93.38;96355.91;5032692;28;20484;-78
2022/06/04 05:37:23;;;;;;;149.32;42.13;;;;;;;17.12;93.00;96352.09;5032003;28;20925;-77
2022/06/04 05:39:49;;;;;;;162.70;44.47;;;;;;;17.09;93.21;96355.53;5033082;28;20056;-78
2022/06/04 05:42:16;;;;;;;171.68;45.90;;;;;;;17.07;92.92;96360.63;5032673;28;20041;-78
2022/06/04 05:44:43;;;;;;;;;;;;;;;17.09;93.04;96357.50;5033511;28;20063;-77
2022/06/04 05:47:10;;;;;;;;;;;;;;;17.13;93.22;96359.19;5032653;28;20472;-78
2022/06/04 05:49:37;;;;;;;150.20;43.90;;;;;;;17.14;93.53;96354.47;5032947;28;20447;-77
2022/06/04 05:52:04;;;;;;;175.75;46.17;;;;;;;17.14;93.57;96354.47;5032209;28;20053;-77
2022/06/04 05:54:31;;;;;;;174.68;46.38;;;;;;;17.23;93.72;96357.81;5032710;28;20049;-78
2022/06/04 05:56:57;;;;;;;170.57;45.75;;;;;;;17.24;94.01;96359.41;5032737;28;20552;-78
2022/06/04 05:59:24;;;;;;;164.05;45.17;;;;;;;17.30;93.69;96357.16;5032105;28;20033;-78
2022/06/04 06:01:52;;;;;;;;;;;;;;;17.34;93.72;96358.84;5033101;28;20037;-78
2022/06/04 06:04:21;;;;;;;156.40;47.17;;;;;;;17.33;94.23;96362.75;5029214;28;20464;-77
2022/06/04 06:06:51;;;;;;;136.25;49.40;;;;;;;17.39;94.42;96366.81;5028593;28;20042;-78
2022/06/04 06:09:19;;;;;;;;;;;;;;;17.50;94.55;96371.75;5027958;28;20045;-77
2022/06/04 06:11:48;;;;;;;;;;;;;;;17.55;94.46;96379.72;5028369;28;20428;-77
2022/06/04 06:14:14;;;;;;;182.18;55.00;;;;;;;17.71;94.32;96380.41;5026654;28;20521;-78
2022/06/04 06:16:42;;;;;;;;;;;;;;;17.85;93.70;96383.47;5028623;28;20042;-77
2022/06/04 06:19:09;;;;;;;;;;;;;;;17.82;93.11;96380.66;5027497;28;20462;-78
2022/06/04 06:21:36;;;;;;;;;;;;;;;17.93;92.98;96382.44;5028986;28;19929;-78
2022/06/04 06:24:03;;;;;;;;;;;;;;;18.04;92.65;96379.09;5030806;28;19963;-79
2022/06/04 06:26:31;;;;;;;;;;;;;;;18.09;92.31;96370.53;5028739;28;19929;-78
2022/06/04 06:29:00;;;;;;;;;;;;;;;18.18;92.47;96365.59;5028857;28;20343;-78
2022/06/04 06:31:28;;;;;;;;;;;;;;;18.26;90.93;96375.56;5028831;28;20407;-77
2022/06/04 06:33:55;;;;;;;;;;;;;;;18.30;88.39;96381.13;5029874;28;19929;-78
2022/06/04 06:36:23;;;;;;;148.57;46.08;;;;;;;18.36;88.34;96377.69;5028264;28;20357;-78
2022/06/04 06:38:50;;;;;;;;;;;;;;;18.40;88.54;96384.09;5028998;28;20049;-78
2022/06/04 06:41:19;;;;;;;119.60;46.55;;;;;;;18.51;89.40;96387.00;5028689;28;20058;-78
2022/06/04 06:43:46;;;;;;;;;;;;;;;18.62;88.78;96387.19;5021663;28;20906;-78
2022/06/04 06:46:14;;;;;;;;;;;;;;;18.75;88.28;96392.19;5027316;28;20682;-77
2022/06/04 06:48:41;;;;;;;;;;;;;;;18.84;88.45;96394.66;5028427;28;20499;-78
2022/06/04 06:51:08;;;;;;;;;;;;;;;18.89;88.32;96396.31;5028332;28;19975;-77
2022/06/04 06:53:36;;;;;;;138.47;45.57;;;;;;;18.93;87.63;96392.44;5031011;28;20407;-77
2022/06/04 06:56:09;;;;;;;;;;;;;;;18.95;87.20;96406.69;5029203;28;20528;-78
2022/06/04 06:58:44;;;;;;;;;;;;;;;18.85;85.41;96409.28;5029892;28;20468;-80
2022/06/04 07:03:40;;;;;;;;;;;;;;;18.93;85.88;96403.47;5042347;28;20418;-82
2022/06/04 07:06:08;;;;;;;;;;;;;;;19.02;85.90;96408.75;5041082;28;20498;-81
2022/06/04 07:08:37;;;;;;;144.30;45.30;;;;;;;19.11;86.54;96414.81;5036305;28;20463;-78
2022/06/04 07:11:04;;;;;;;;;;;;;;;19.15;86.65;96410.13;5008723;28;20054;-80
2022/06/04 07:13:31;;;;;;;155.23;46.55;;;;;;;19.14;86.23;96425.09;5009331;28;20828;-81
2022/06/04 07:15:57;;;;;;;;;;;;;;;19.20;86.52;96411.75;5016876;28;20046;-83
2022/06/04 07:18:24;;;;;;;;;;;;;;;19.25;86.74;96419.72;5029125;28;20426;-83
2022/06/04 07:20:51;;;;;;;;;;;;;;;19.30;86.76;96430.44;5028841;28;20413;-81
2022/06/04 07:23:18;;;;;;;;;;;;;;;19.34;86.70;96428.53;5037718;28;19997;-81
2022/06/04 07:25:47;;;;;;;164.07;46.60;;;;;;;19.32;86.45;96428.13;5035107;28;19993;-82
2022/06/04 07:28:15;;;;;;;;;;;;;;;19.31;86.21;96429.25;5034617;28;20128;-81
2022/06/04 07:30:42;;;;;;;162.27;45.33;;;;;;;19.30;86.37;96430.44;5033697;28;20966;-81
2022/06/04 07:33:08;;;;;;;;;;;;;;;19.33;85.66;96434.44;5034836;28;20050;-80
2022/06/04 07:35:34;;;;;;;;;;;;;;;19.27;85.25;96429.25;5035419;28;20403;-81
2022/06/04 07:38:01;;;;;;;;;;;;;;;19.35;85.76;96419.06;5034990;28;20066;-81
2022/06/04 07:40:28;;;;;;;128.80;44.60;;;;;;;19.41;85.83;96427.81;5035470;28;19925;-82
2022/06/04 07:42:58;;;;;;;108.40;49.70;;;;;;;19.41;85.77;96423.09;5037050;28;20387;-81
2022/06/04 07:45:25;;;;;;;;;;;;;;;19.40;85.27;96432.56;5037286;28;20385;-83
2022/06/04 07:47:51;;;;;;;;;;;;;;;19.32;85.62;96452.97;5038634;28;20322;-82
2022/06/04 07:50:18;;;;;;;;;;;;;;;19.37;85.82;96460.94;5039531;28;20416;-82
2022/06/04 07:52:44;;;;;;;;;;;;;;;19.49;86.09;96480.03;5039234;28;20404;-81
2022/06/04 07:55:11;;;;;;;;;;;;;;;19.61;87.47;96503.09;5037877;28;19921;-82
2022/06/04 07:57:38;;;;;;;;;;;;;;;19.67;87.70;96518.19;5037654;28;19972;-83
2022/06/04 08:00:07;;;;;;;;;;;;;;;19.58;88.86;96509.38;5036228;28;19921;-82
2022/06/04 08:02:33;;;;;;;;;;;;;;;19.53;89.72;96505.75;5036057;28;19925;-80
2022/06/04 08:05:00;;;;;;;127.07;42.22;;;;;;;19.50;88.63;96487.16;5035310;28;19925;-82
2022/06/04 08:07:27;;;;;;;;;;;;;;;19.58;88.54;96498.31;5035994;28;20041;-82
2022/06/04 08:09:53;;;;;;;;;;;;;;;19.60;87.32;96496.00;5021460;28;19922;-81
2022/06/04 08:12:20;;;;;;;135.65;42.53;;;;;;;19.66;85.56;96473.19;5017190;28;20432;-81
2022/06/04 08:14:47;;;;;;;102.10;44.00;;;;;;;19.73;83.48;96472.47;5017226;28;20054;-82
2022/06/04 08:17:17;;;;;;;;;;;;;;;19.70;83.39;96467.72;5041168;28;19925;-82
2022/06/04 08:19:43;;;;;;;;;;;;;;;19.62;83.95;96457.72;5017634;28;20431;-81
2022/06/04 08:22:10;;;;;;;;;;;;;;;19.70;83.78;96456.69;5016070;28;19925;-81
2022/06/04 08:24:37;;;;;;;;;;;;;;;19.75;82.60;96446.09;5017735;28;19926;-81
2022/06/04 08:27:04;;;;;;;;;;;;;;;19.76;82.59;96444.13;5015091;28;19998;-81
2022/06/04 08:29:31;;;;;;;;;;;;;;;19.77;83.16;96440.19;5017553;28;19932;-82
2022/06/04 08:31:59;;;;;;;;;;;;;;;19.81;82.96;96446.56;5017571;28;20299;-81
2022/06/04 08:34:26;;;;;;;;;;;;;;;19.81;83.97;96446.56;5015924;28;19925;-81
2022/06/04 08:36:53;;;;;;;;;;;;;;;19.74;81.05;96450.03;5018133;28;19935;-82
2022/06/04 08:39:20;;;;;;;121.50;42.20;;;;;;;19.63;81.33;96453.78;5032754;28;20461;-82
2022/06/04 08:41:53;;;;;;;;;;;;;;;19.74;81.19;96447.25;5039394;28;19976;-81
2022/06/04 08:44:21;;;;;;;;;;;;;;;19.79;81.84;96437.84;5035930;28;20479;-81
2022/06/04 08:46:51;;;;;;;;;;;;;;;19.75;82.44;96437.00;5035984;28;20402;-81
2022/06/04 08:49:22;;;;;;;;;;;;;;;19.83;82.82;96435.91;5038829;28;20530;-81
2022/06/04 08:51:50;;;;;;;;;;;;;;;19.86;82.88;96448.97;5039557;28;19993;-82
2022/06/04 08:59:53;;;;;;;;;;;;;;;19.85;79.72;96425.28;5040614;28;20071;-80
2022/06/04 09:02:22;;;;;;;;;;;;;;;19.88;78.62;96424.53;5040397;28;20419;-82
2022/06/04 09:04:53;;;;;;;;;;;;;;;20.02;78.99;96419.16;5042660;28;19986;-82
2022/06/04 09:07:23;;;;;;;;;;;;;;;20.12;78.78;96419.66;5040426;28;19996;-80
2022/06/04 09:09:54;;;;;;;;;;;;;;;20.23;76.43;96412.28;5041242;28;19959;-81
2022/06/04 09:12:28;;;;;;;;;;;;;;;20.28;71.91;96406.41;5041085;28;20280;-82
2022/06/04 09:14:58;;;;;;;;;;;;;;;20.33;72.32;96397.78;5045063;28;20419;-81
2022/06/04 09:17:30;;;;;;;;;;;;;;;20.38;72.07;96408.47;5040162;28;20808;-82
2022/06/04 09:19:59;;;;;;;;;;;;;;;20.43;71.72;96408.13;5041800;28;20254;-82
2022/06/04 09:22:35;;;;;;;123.50;44.90;;;;;;;20.50;70.61;96411.00;5042216;28;20963;-82
2022/06/04 09:25:02;;;;;;;;;;;;;;;20.53;73.06;96417.75;5042759;28;20053;-81
2022/06/04 09:27:37;;;;;;;;;;;;;;;20.49;73.02;96414.94;5042611;28;19970;-82
2022/06/04 09:30:17;;;;;;;;;;;;;;;20.40;70.32;96411.66;5041467;28;19921;-82
2022/06/04 09:32:51;;;;;;;;;;;;;;;20.53;70.27;96413.00;5044093;28;19951;-82
2022/06/04 09:35:19;;;;;;;;;;;;;;;20.64;71.33;96426.94;5041701;28;19925;-83
2022/06/04 09:37:47;;;;;;;;;;;;;;;20.77;72.59;96430.19;5040906;28;19973;-85
2022/06/04 09:40:18;;;;;;;;;;;;;;;20.83;71.99;96423.94;5042822;28;20002;-81
2022/06/04 09:42:45;;;;;;;;;;;;;;;20.77;71.12;96431.00;5041137;28;19995;-83
2022/06/04 09:45:20;;;;;;;;;;;;;;;20.84;70.40;96427.50;5040179;28;19997;-81
2022/06/04 09:47:48;;;;;;;;;;;;;;;20.87;70.75;96426.72;5044543;28;20463;-84
2022/06/04 09:50:20;;;;;;;;;;;;;;;20.91;72.26;96430.31;5042003;28;20052;-81
2022/06/04 09:52:57;;;;;;;;;;;;;;;20.90;71.00;96428.75;5048170;28;19980;-83
2022/06/04 09:55:24;;;;;;;;;;;;;;;20.78;69.74;96437.34;5044947;28;19925;-83
2022/06/04 09:57:56;;;;;;;;;;;;;;;20.69;68.85;96431.34;5044190;28;19965;-83
2022/06/04 10:00:24;;;;;;;;;;;;;;;20.74;70.64;96433.75;5043766;28;19972;-82
2022/06/04 10:02:54;;;;;;;;;;;;;;;20.88;66.25;96435.81;5051289;28;19974;-84
2022/06/04 10:05:22;;;;;;;;;;;;;;;20.98;69.12;96435.91;5046594;28;20008;-82
2022/06/04 10:07:50;;;;;;;;;;;;;;;21.03;71.15;96432.78;5046843;28;19997;-84
2022/06/04 10:10:23;;;;;;;;;;;;;;;21.30;68.89;96440.94;5046601;28;20479;-83
2022/06/04 10:15:38;;;;;;;;;;;;;;;21.86;68.18;96428.56;5047504;28;20059;-83
2022/06/04 10:18:06;;;;;;;;;;;;;;;22.11;67.56;96435.00;5048496;28;19925;-85
2022/06/04 10:20:33;;;;;;;;;;;;;;;22.45;67.48;96440.28;5049095;28;19925;-83
2022/06/04 10:23:01;;;;;;;;;;;;;;;22.71;65.19;96438.31;5048381;28;19925;-82
2022/06/04 10:25:32;;;;;;;;;;;;;;;22.63;62.37;96432.75;5049059;28;19937;-82
2022/06/04 10:28:07;;;;;;;;;;;;;;;22.80;64.93;96430.38;5048595;28;19925;-85
2022/06/04 10:30:39;;;;;;;;;;;;;;;22.85;63.09;96424.44;5051503;28;19947;-83
2022/06/04 10:33:23;;;;;;;;;;;;;;;23.03;67.33;96428.06;5046362;28;19931;-84
2022/06/04 10:35:56;;;;;;;;;;;;;;;23.05;63.26;96430.44;5048331;28;20486;-85
2022/06/04 10:38:29;;;;;;;;;;;;;;;22.83;62.65;96424.06;5054095;28;19961;-83
2022/06/04 10:41:13;;;;;;;;;;;;;;;23.01;64.20;96418.53;5070885;28;19925;-83
2022/06/04 10:43:54;;;;;;;;;;;;;;;23.18;63.03;96399.06;5066724;28;19925;-83
2022/06/04 10:46:27;;;;;;;;;;;;;;;23.40;61.51;96404.59;5067781;28;19931;-84
2022/06/04 10:49:02;;;;;;;;;;;;;;;23.55;61.04;96416.47;5070724;28;19929;-84
2022/06/04 10:51:38;;;;;;;;;;;;;;;23.52;58.62;96431.16;5071055;28;20001;-82
2022/06/04 10:54:09;;;;;;;;;;;;;;;23.63;60.69;96416.06;5070362;28;19952;-84
2022/06/04 10:56:40;;;;;;;;;;;;;;;23.64;61.45;96414.06;5070161;28;19921;-86
2022/06/04 10:59:11;;;;;;;;;;;;;;;23.72;63.04;96404.53;5070521;28;20387;-84
2022/06/04 11:01:40;;;;;;;;;;;;;;;23.81;64.51;96409.66;5071266;28;19960;-85
2022/06/04 11:04:16;;;;;;;;;;;;;;;24.05;65.78;96405.97;5070896;28;19951;-84
2022/06/04 11:06:44;;;;;;;;;;;;;;;24.01;58.12;96396.84;5074126;28;20338;-84
2022/06/04 11:09:25;;;;;;;;;;;;;;;24.06;59.75;96401.19;5064458;28;19932;-84
2022/06/04 11:11:55;;;;;;;;;;;;;;;24.13;62.15;96392.81;5043667;28;19925;-86
2022/06/04 11:14:28;;;;;;;;;;;;;;;24.23;59.74;96397.53;5043717;28;20001;-85
2022/06/04 11:16:58;;;;;;;;;;;;;;;24.22;62.69;96382.00;5045245;28;19956;-86
2022/06/04 11:19:28;;;;;;;;;;;;;;;24.35;62.51;96387.91;5053094;28;19931;-87
2022/06/04 11:21:57;;;;;;;;;;;;;;;24.32;60.06;96383.94;5048118;28;19925;-88
2022/06/04 11:24:29;;;;;;;;;;;;;;;24.36;61.09;96383.97;5050860;28;19931;-87
2022/06/04 11:27:00;;;;;;;;;;;;;;;24.49;61.39;96375.94;5050255;28;20000;-87
2022/06/04 11:29:27;;;;;;;;;;;;;;;24.53;61.94;96376.69;5054856;28;19954;-86
2022/06/04 11:32:02;;;;;;;;;;;;;;;24.45;60.61;96375.97;5053531;28;19928;-87
2022/06/04 11:34:41;;;;;;;;;;;;;;;24.45;62.30;96376.75;5054494;28;19993;-87
2022/06/04 11:37:13;;;;;;;;;;;;;;;24.59;64.68;96380.59;5054098;28;19928;-85
2022/06/04 11:39:55;;;;;;;;;;;;;;;24.67;59.98;96376.59;5049687;28;19948;-88
2022/06/04 11:42:28;;;;;;;;;;;;;;;24.72;56.91;96374.16;5044656;28;19925;-88
2022/06/04 11:45:24;;;;;;;;;;;;;;;24.48;58.00;96369.56;5055616;28;19931;-89
2022/06/04 11:48:00;;;;;;;;;;;;;;;24.35;56.29;96371.22;5012972;28;19910;-88
2022/06/04 11:50:30;;;;;;;;;;;;;;;24.46;59.38;96363.63;5011894;28;19937;-86
2022/06/04 11:53:00;;;;;;;;;;;;;;;24.42;62.95;96360.06;5004900;28;19936;-85
2022/06/04 11:55:30;;;;;;;;;;;;;;;24.44;63.32;96357.69;5006050;28;19951;-86
2022/06/04 11:58:04;;;;;;;;;;;;;;;24.54;61.45;96356.81;5041615;28;19943;-87
2022/06/04 12:00:31;;;;;;;;;;;;;;;24.57;61.39;96364.31;5056880;28;19920;-86
2022/06/04 12:03:02;;;;;;;;;;;;;;;24.46;61.70;96360.84;5065051;28;19917;-88
2022/06/04 12:05:36;;;;;;;;;;;;;;;24.51;60.88;96362.41;5052867;28;19979;-89
2022/06/04 12:08:06;;;;;;;;;;;;;;;24.42;63.60;96358.06;5048169;28;19924;-82
2022/06/04 12:10:42;;;;;;;;;;;;;;;24.57;65.95;96352.41;5067687;28;19925;-88
2022/06/04 12:13:24;;;;;;;;;;;;;;;24.60;63.96;96359.94;5065043;28;19909;-86
2022/06/04 12:16:13;;;;;;;;;;;;;;;24.88;62.26;96356.13;5037275;28;19935;-88
2022/06/04 12:18:42;;;;;;;;;;;;;;;24.83;60.65;96345.44;5048029;28;19931;-87
2022/06/04 12:24:18;;;;;;;;;;;;;;;24.95;60.98;96347.69;5051259;28;19931;-84
2022/06/04 12:26:48;;;;;;;;;;;;;;;25.04;62.37;96341.66;5050071;28;20021;-87
2022/06/04 12:29:32;;;;;;;;;;;;;;;25.05;60.48;96346.00;5055237;28;19940;-85
2022/06/04 12:31:59;;;;;;;;;;;;;;;24.94;57.15;96344.13;5057255;28;19992;-83
2022/06/04 12:34:27;;;;;;;;;;;;;;;24.96;57.68;96352.09;5056327;28;19977;-86
2022/06/04 12:36:54;;;;;;;;;;;;;;;24.86;60.47;96356.53;5050844;28;19948;-88
2022/06/04 12:39:22;;;;;;;;;;;;;;;24.82;59.39;96355.78;5050192;28;19917;-86
2022/06/04 12:41:51;;;;;;;;;;;;;;;24.90;61.14;96353.72;5049183;28;19925;-89
2022/06/04 12:44:21;;;;;;;;;;;;;;;25.08;61.06;96346.00;5052345;28;19925;-87
2022/06/04 12:46:48;;;;;;;;;;;;;;;25.07;61.61;96350.00;5052782;28;19956;-89
2022/06/04 12:49:20;;;;;;;;;;;;;;;25.03;60.69;96354.00;5054392;28;19925;-86
2022/06/04 12:51:52;;;;;;;;;;;;;;;25.18;62.10;96359.06;5056465;28;19967;-88
2022/06/04 12:54:42;;;;;;;;;;;;;;;25.21;60.14;96347.09;5056333;28;19993;-88
2022/06/04 12:59:43;;;;;;;;;;;;;;;25.25;58.96;96345.03;5145362;22;19972;-84
2022/06/04 13:02:24;;;;;;;;;;;;;;;25.36;61.31;96347.69;5043372;28;19947;-86
2022/06/04 13:05:06;;;;;;;;;;;;;;;25.36;58.27;96347.69;5054149;28;19960;-88
2022/06/04 13:07:39;;;;;;;;;;;;;;;25.37;58.24;96348.50;5056180;28;19909;-86
2022/06/04 13:10:15;;;;;;;;;;;;;;;25.27;58.12;96346.59;5049144;28;19928;-88